Time;durP1;ratioP1;P1;durP2;ratioP2;P2;SDS_P1;SDS_P2;PMS_P1;PMS_P2;Temp;Humidity;BMP_temperature;BMP_pressure;BME280_temperature;BME280_humidity;BME280_pressure;Samples;Min_cycle;Max_cycle;Signal;HPM_P1;HPM_P2
2022/06/06 00:01:18;;;;;;;6.88;3.00;;;;;;;19.63;58.76;94689.72;5131721;27;20023;-72
2022/06/06 00:03:44;;;;;;;5.20;2.80;;;;;;;19.66;58.55;94688.56;5114010;28;20039;-73
2022/06/06 00:06:11;;;;;;;5.32;2.75;;;;;;;19.52;58.84;94685.75;5129929;27;20492;-73
2022/06/06 00:08:37;;;;;;;3.75;2.53;;;;;;;19.45;59.31;94676.97;5128613;28;20084;-73
2022/06/06 00:11:04;;;;;;;4.57;2.90;;;;;;;19.46;59.51;94662.78;5130485;28;20458;-72
2022/06/06 00:13:30;;;;;;;4.03;3.00;;;;;;;19.39;59.93;94667.19;5131597;27;20500;-73
2022/06/06 00:15:55;;;;;;;4.32;2.35;;;;;;;19.30;60.17;94669.06;5131098;27;20030;-73
2022/06/06 00:18:21;;;;;;;3.90;2.80;;;;;;;19.29;60.48;94671.91;5110959;28;20028;-73
2022/06/06 00:20:46;;;;;;;3.33;2.72;;;;;;;19.31;60.16;94668.09;5092847;28;20035;-72
2022/06/06 00:23:11;;;;;;;4.63;2.72;;;;;;;19.45;59.92;94670.88;5094809;28;20035;-73
2022/06/06 00:25:37;;;;;;;5.40;2.75;;;;;;;19.44;60.10;94683.22;5110078;28;20523;-73
2022/06/06 00:28:03;;;;;;;4.28;2.90;;;;;;;19.44;59.96;94675.31;5110904;28;20451;-73
2022/06/06 00:30:28;;;;;;;3.80;2.80;;;;;;;19.38;59.92;94673.44;5092601;28;20035;-73
2022/06/06 00:35:38;;;;;;;3.83;2.80;;;;;;;19.31;59.62;94659.38;5131539;28;20042;-72
2022/06/06 00:38:03;;;;;;;4.13;3.00;;;;;;;19.29;59.18;94650.84;5129486;27;20400;-72
2022/06/06 00:40:30;;;;;;;4.18;2.90;;;;;;;19.39;58.61;94654.81;5113061;28;20115;-73
2022/06/06 00:42:56;;;;;;;4.45;2.72;;;;;;;19.49;59.06;94638.72;5131175;27;20034;-73
2022/06/06 00:45:33;;;;;;;4.10;2.58;;;;;;;19.61;58.91;94631.97;5128403;28;20027;-73
2022/06/06 00:48:12;;;;;;;4.43;2.40;;;;;;;19.67;58.29;94625.16;5129511;28;20559;-73
2022/06/06 00:51:12;;;;;;;3.80;2.83;;;;;;;19.69;58.60;94627.59;5131347;27;20092;-73
2022/06/06 00:53:55;;;;;;;5.03;2.58;;;;;;;19.52;58.79;94609.34;5128284;28;20043;-72
2022/06/06 00:56:31;;;;;;;4.28;2.60;;;;;;;19.50;58.67;94628.97;5113177;28;20023;-73
2022/06/06 00:58:59;;;;;;;3.78;2.78;;;;;;;19.41;59.04;94625.66;5128355;28;20084;-72
2022/06/06 01:01:26;;;;;;;3.95;3.05;;;;;;;19.44;58.44;94617.38;5131155;27;20027;-73
2022/06/06 01:03:51;;;;;;;4.68;2.70;;;;;;;19.38;58.51;94610.22;5096143;28;20058;-73
2022/06/06 01:06:17;;;;;;;4.20;2.90;;;;;;;19.33;58.70;94599.41;5130636;27;20314;-73
2022/06/06 01:08:44;;;;;;;4.55;2.90;;;;;;;19.33;58.66;94588.88;5099002;28;20032;-72
2022/06/06 01:11:09;;;;;;;3.88;2.85;;;;;;;19.22;58.61;94597.28;5112989;28;20039;-73
2022/06/06 01:13:36;;;;;;;3.05;2.75;;;;;;;19.26;58.83;94602.00;5096997;28;20028;-73
2022/06/06 01:16:32;;;;;;;4.50;2.80;;;;;;;19.29;58.67;94592.91;5095941;28;20118;-74
2022/06/06 01:19:16;;;;;;;4.60;3.05;;;;;;;19.15;58.92;94584.03;5114514;27;20035;-73
2022/06/06 01:21:49;;;;;;;4.72;2.80;;;;;;;19.15;59.05;94571.69;5112625;28;20405;-73
2022/06/06 01:24:27;;;;;;;3.63;2.63;;;;;;;19.16;58.89;94569.88;5129043;27;20461;-73
2022/06/06 01:27:08;;;;;;;5.35;2.83;;;;;;;19.14;59.30;94572.69;5113844;28;20042;-73
2022/06/06 01:29:36;;;;;;;4.03;2.80;;;;;;;19.16;59.09;94557.50;5112719;28;20501;-73
2022/06/06 01:32:09;;;;;;;4.85;2.85;;;;;;;19.30;58.65;94542.69;5112593;28;20412;-73
2022/06/06 01:34:38;;;;;;;5.50;2.60;;;;;;;19.26;58.98;94545.88;5112554;27;20023;-73
2022/06/06 01:37:04;;;;;;;3.65;2.80;;;;;;;19.28;58.70;94552.59;5115573;27;20035;-73
2022/06/06 01:39:31;;;;;;;3.05;2.67;;;;;;;19.26;58.79;94557.22;5131601;27;20031;-73
2022/06/06 01:42:08;;;;;;;3.10;2.65;;;;;;;19.30;59.05;94566.38;5103788;27;20572;-73
2022/06/06 01:44:42;;;;;;;3.67;2.75;;;;;;;19.32;59.23;94555.66;5114793;27;20412;-73
2022/06/06 01:47:11;;;;;;;3.60;2.78;;;;;;;19.36;59.64;94567.44;5134030;27;20532;-73
2022/06/06 01:49:37;;;;;;;3.83;3.25;;;;;;;19.47;60.48;94672.31;5113413;27;20039;-73
2022/06/06 01:52:08;;;;;;;6.28;3.25;;;;;;;19.39;58.98;94677.72;5095065;28;20505;-73
2022/06/06 01:54:33;;;;;;;4.20;2.97;;;;;;;19.46;57.98;94698.84;5110887;28;20027;-73
2022/06/06 01:56:59;;;;;;;10.30;4.00;;;;;;;19.64;61.62;94705.38;5112075;28;20031;-72
2022/06/06 01:59:24;;;;;;;15.50;5.60;;;;;;;19.62;64.69;94698.63;5096158;27;20031;-73
2022/06/06 02:01:50;;;;;;;13.98;5.55;;;;;;;19.67;64.85;94669.94;5111846;28;20040;-73
2022/06/06 02:04:18;;;;;;;12.27;5.10;;;;;;;19.70;67.69;94674.03;5113376;28;20504;-73
2022/06/06 02:06:43;;;;;;;12.52;4.85;;;;;;;19.52;68.25;94669.94;5111939;28;20509;-73
2022/06/06 02:09:09;;;;;;;10.95;5.28;;;;;;;19.35;69.10;94666.72;5125566;27;20019;-72
2022/06/06 02:11:34;;;;;;;10.57;5.00;;;;;;;19.32;70.09;94666.28;5123269;27;20039;-73
2022/06/06 02:14:00;;;;;;;12.27;5.00;;;;;;;19.16;70.49;94683.06;5112718;28;20089;-73
2022/06/06 02:16:25;;;;;;;8.32;4.80;;;;;;;19.11;71.47;94706.50;5095580;27;20056;-72
2022/06/06 02:18:51;;;;;;;12.40;5.80;;;;;;;19.10;72.75;94716.22;5129267;27;20031;-73
2022/06/06 02:21:16;;;;;;;10.52;4.53;;;;;;;19.02;72.01;94712.84;5114656;27;20032;-73
2022/06/06 02:23:43;;;;;;;11.40;4.63;;;;;;;18.86;72.29;94719.09;5119126;27;20208;-73
2022/06/06 02:26:09;;;;;;;7.85;4.20;;;;;;;18.86;72.43;94754.16;5112603;28;20032;-73
2022/06/06 02:28:36;;;;;;;7.22;4.20;;;;;;;18.91;72.78;94753.59;5094458;28;20421;-73
2022/06/06 02:31:02;;;;;;;8.98;4.32;;;;;;;18.90;73.22;94773.84;5094576;28;20036;-73
2022/06/06 02:33:28;;;;;;;8.68;4.15;;;;;;;18.88;73.80;94793.44;5112380;27;20092;-73
2022/06/06 02:35:54;;;;;;;8.63;4.25;;;;;;;18.92;74.14;94802.63;5094463;28;20028;-73
2022/06/06 02:38:19;;;;;;;7.10;4.00;;;;;;;18.97;73.64;94831.84;5115484;27;20476;-73
2022/06/06 02:40:45;;;;;;;12.77;5.30;;;;;;;18.84;73.58;94829.81;5131846;27;20054;-73
2022/06/06 02:43:10;;;;;;;14.15;5.90;;;;;;;18.60;74.11;94825.53;5131522;27;20031;-74
2022/06/06 02:45:36;;;;;;;9.48;5.80;;;;;;;18.36;75.11;94817.81;5131710;27;20629;-73
2022/06/06 02:48:01;;;;;;;9.95;6.00;;;;;;;18.28;75.67;94789.78;5119796;27;20028;-73
2022/06/06 02:50:29;;;;;;;12.65;6.38;;;;;;;18.24;76.16;94775.31;5112288;28;20032;-73
2022/06/06 02:52:54;;;;;;;9.35;5.57;;;;;;;18.22;76.20;94736.09;5094996;27;20047;-73
2022/06/06 02:55:20;;;;;;;10.75;5.65;;;;;;;18.31;76.73;94723.69;5093945;28;20517;-73
2022/06/06 02:57:47;;;;;;;15.48;5.93;;;;;;;18.28;76.30;94711.72;5093844;28;20550;-73
2022/06/06 03:00:15;;;;;;;13.77;5.53;;;;;;;18.29;77.10;94668.63;5110758;28;20049;-73
2022/06/06 03:02:41;;;;;;;10.55;5.00;;;;;;;18.19;76.43;94654.94;5093880;28;20028;-73
2022/06/06 03:05:07;;;;;;;9.57;4.60;;;;;;;18.19;75.81;94641.81;5110948;28;20088;-73
2022/06/06 03:08:14;;;;;;;11.70;4.70;;;;;;;18.22;74.88;94644.06;5111708;27;20416;-73
2022/06/06 03:10:48;;;;;;;8.07;4.07;;;;;;;18.13;74.58;94655.63;5111706;28;20059;-73
2022/06/06 03:13:26;;;;;;;8.95;3.92;;;;;;;18.09;74.99;94659.63;5111764;28;20035;-73
2022/06/06 03:22:20;;;;;;;8.05;3.70;;;;;;;18.16;76.09;94725.44;5111947;28;20074;-73
2022/06/06 03:25:01;;;;;;;8.68;4.28;;;;;;;18.16;76.14;94731.50;5128588;27;20042;-73
2022/06/06 03:27:39;;;;;;;7.50;4.50;;;;;;;18.19;76.55;94754.00;5130968;27;20031;-73
2022/06/06 03:30:31;;;;;;;9.32;5.63;;;;;;;18.15;77.44;94761.44;5132175;27;20489;-73
2022/06/06 03:32:59;;;;;;;11.27;5.75;;;;;;;18.13;77.53;94762.59;5118209;27;20051;-72
2022/06/06 03:35:34;;;;;;;9.20;5.38;;;;;;;18.20;77.64;94766.16;5111579;28;20107;-72
2022/06/06 03:38:02;;;;;;;11.20;6.90;;;;;;;18.18;77.08;94763.69;5113885;27;20091;-73
2022/06/06 03:40:52;;;;;;;8.95;6.43;;;;;;;18.25;77.25;94763.84;5113942;27;20024;-72
2022/06/06 03:43:52;;;;;;;9.57;6.93;;;;;;;18.20;76.55;94753.84;5131909;27;20498;-73
2022/06/06 03:46:29;;;;;;;9.80;6.75;;;;;;;18.11;76.97;94747.00;5112959;27;20043;-72
2022/06/06 03:48:55;;;;;;;11.27;6.65;;;;;;;18.07;77.42;94740.44;5129440;27;20027;-72
2022/06/06 03:51:23;;;;;;;14.10;7.00;;;;;;;18.08;77.89;94732.41;5130487;27;20488;-73
2022/06/06 03:54:01;;;;;;;11.68;7.28;;;;;;;18.14;78.26;94730.88;5124991;27;20050;-73
2022/06/06 03:56:51;;;;;;;8.80;6.32;;;;;;;18.16;78.19;94723.63;5110048;28;20062;-73
2022/06/06 03:59:17;;;;;;;11.60;6.93;;;;;;;18.18;77.70;94729.53;5110209;28;20026;-72
2022/06/06 04:01:42;;;;;;;9.68;6.50;;;;;;;18.21;77.75;94737.06;5110950;28;20040;-73
2022/06/06 04:04:08;;;;;;;11.38;6.55;;;;;;;18.29;77.13;94720.41;5110099;28;20160;-72
2022/06/06 04:06:34;;;;;;;8.20;5.32;;;;;;;18.33;76.70;94715.63;5092944;28;20047;-73
2022/06/06 04:09:00;;;;;;;10.90;5.10;;;;;;;18.33;76.45;94718.25;5093296;28;20603;-73
2022/06/06 04:11:28;;;;;;;8.20;4.28;;;;;;;18.37;75.87;94719.53;5125634;28;20535;-73
2022/06/06 04:14:09;;;;;;;7.43;3.95;;;;;;;18.45;75.55;94716.84;5131867;27;20035;-72
2022/06/06 04:16:34;;;;;;;7.93;3.88;;;;;;;18.48;74.76;94712.03;5131638;27;20488;-73
2022/06/06 04:19:21;;;;;;;7.28;3.50;;;;;;;18.50;74.82;94709.25;5130106;27;20027;-72
2022/06/06 04:22:05;;;;;;;7.40;3.67;;;;;;;18.58;75.16;94706.50;5131521;27;20054;-73
2022/06/06 04:25:10;;;;;;;7.18;4.30;;;;;;;18.58;76.61;94714.41;5128410;27;20507;-72
2022/06/06 04:27:41;;;;;;;7.30;4.93;;;;;;;18.49;76.13;94720.75;5115529;27;20070;-73
2022/06/06 04:30:12;;;;;;;8.02;4.45;;;;;;;18.51;75.95;94719.56;5130498;28;20055;-72
2022/06/06 04:32:56;;;;;;;6.90;4.25;;;;;;;18.44;76.08;94716.03;5112027;28;20111;-73
2022/06/06 04:35:22;;;;;;;11.48;4.60;;;;;;;18.50;75.74;94725.84;5116900;28;20482;-73
2022/06/06 04:38:08;;;;;;;6.47;4.47;;;;;;;18.43;76.42;94724.91;5131445;27;20103;-73
2022/06/06 04:40:54;;;;;;;7.72;4.57;;;;;;;18.46;76.28;94732.44;5114880;28;20417;-73
2022/06/06 04:43:28;;;;;;;8.07;4.85;;;;;;;18.45;77.36;94714.22;5113322;28;20496;-73
2022/06/06 04:46:23;;;;;;;6.93;4.22;;;;;;;18.56;77.52;94718.22;5115643;27;20112;-73
2022/06/06 04:48:48;;;;;;;7.03;4.50;;;;;;;18.50;77.57;94715.31;5113738;28;20482;-73
2022/06/06 04:51:17;;;;;;;6.43;4.22;;;;;;;18.68;77.75;94730.75;5096194;28;20036;-73
2022/06/06 04:53:43;;;;;;;9.65;4.50;;;;;;;18.79;77.87;94734.81;5114879;27;20043;-73
2022/06/06 04:56:08;;;;;;;9.20;5.00;;;;;;;18.86;77.74;94729.63;5096809;28;20038;-73
2022/06/06 04:58:34;;;;;;;6.80;4.38;;;;;;;18.94;77.79;94725.13;5114156;27;20035;-73
2022/06/06 05:01:01;;;;;;;10.07;5.07;;;;;;;19.14;77.17;94730.66;5099202;27;20451;-73
2022/06/06 05:03:27;;;;;;;9.35;6.03;;;;;;;19.42;75.94;94737.91;5122720;27;20454;-73
2022/06/06 05:06:27;;;;;;;9.40;6.45;;;;;;;19.54;74.62;94739.06;5127366;27;20034;-73
2022/06/06 05:08:59;;;;;;;10.07;5.82;;;;;;;19.72;73.87;94737.88;5090499;28;20158;-73
2022/06/06 05:11:52;;;;;;;8.30;6.10;;;;;;;19.84;73.41;94739.06;5126032;27;20042;-73
2022/06/06 05:14:35;;;;;;;10.75;6.22;;;;;;;19.96;73.28;94740.19;5131803;27;20105;-73
2022/06/06 05:17:14;;;;;;;7.07;5.03;;;;;;;20.02;72.28;94733.34;5134067;27;20066;-73
2022/06/06 05:19:56;;;;;;;9.75;4.93;;;;;;;20.13;72.15;94747.88;5113562;27;20032;-73
2022/06/06 05:22:28;;;;;;;8.77;4.82;;;;;;;20.09;71.92;94755.34;5129544;27;20046;-73
2022/06/06 05:25:06;;;;;;;11.98;4.47;;;;;;;20.14;71.61;94754.75;5129523;27;20076;-73
2022/06/06 05:27:44;;;;;;;8.52;4.15;;;;;;;20.25;71.54;94752.47;5114780;27;20115;-73
2022/06/06 05:30:15;;;;;;;8.65;4.30;;;;;;;20.33;71.63;94756.78;5128136;27;20095;-75
2022/06/06 05:32:56;;;;;;;10.07;4.13;;;;;;;20.43;71.20;94756.50;5129122;27;20031;-74
2022/06/06 05:35:58;;;;;;;8.63;4.70;;;;;;;20.47;70.03;94758.53;5124262;27;20039;-74
2022/06/06 05:38:55;;;;;;;8.07;3.90;;;;;;;20.60;70.46;94744.69;5127818;27;20492;-76
2022/06/06 05:41:46;;;;;;;7.07;4.05;;;;;;;20.71;71.03;94756.56;5128815;27;20458;-76
2022/06/06 05:44:17;;;;;;;9.18;3.67;;;;;;;20.83;70.29;94765.56;5130049;27;20438;-76
2022/06/06 05:46:58;;;;;;;7.57;3.58;;;;;;;20.87;69.72;94758.91;5130390;27;20038;-76
2022/06/06 05:49:32;;;;;;;10.95;3.00;;;;;;;21.00;68.67;94762.66;5104020;28;20489;-75
2022/06/06 05:51:57;;;;;;;6.93;3.17;;;;;;;21.11;68.54;94770.84;5095454;28;20052;-75
2022/06/06 05:55:01;;;;;;;8.15;3.50;;;;;;;21.18;67.07;94752.44;5112459;28;20488;-75
2022/06/06 05:57:35;;;;;;;6.45;3.45;;;;;;;21.29;67.52;94762.44;5101696;28;20051;-75
2022/06/06 06:00:10;;;;;;;6.85;3.75;;;;;;;21.31;66.25;94757.78;5118050;27;20039;-76
2022/06/06 06:03:05;;;;;;;8.05;3.15;;;;;;;21.51;67.81;94757.13;5132552;27;20030;-76
2022/06/06 06:05:39;;;;;;;5.75;3.15;;;;;;;21.57;65.57;94761.63;5112720;27;20040;-76
2022/06/06 06:08:33;;;;;;;5.43;3.05;;;;;;;21.71;65.10;94758.00;5125164;27;20462;-77
2022/06/06 06:11:21;;;;;;;6.45;3.22;;;;;;;21.88;63.38;94763.78;5128632;27;20523;-76
2022/06/06 06:14:07;;;;;;;8.75;3.70;;;;;;;21.80;63.62;94766.59;5131612;27;20030;-76
2022/06/06 06:16:36;;;;;;;9.77;3.85;;;;;;;21.77;63.71;94759.88;5134141;27;20037;-75
2022/06/06 06:19:07;;;;;;;8.27;4.20;;;;;;;21.78;65.40;94750.09;5115097;27;20092;-72
2022/06/06 06:21:37;;;;;;;5.93;3.70;;;;;;;21.82;64.10;94765.38;5130483;27;20040;-73
2022/06/06 06:24:05;;;;;;;5.53;3.70;;;;;;;21.89;65.27;94754.81;5115509;27;20062;-75
2022/06/06 06:26:30;;;;;;;6.20;3.92;;;;;;;22.00;65.68;94756.06;5123011;27;20035;-74
2022/06/06 06:28:58;;;;;;;7.95;4.30;;;;;;;22.04;66.38;94752.03;5125800;27;20404;-74
2022/06/06 06:31:40;;;;;;;8.07;4.00;;;;;;;22.18;65.16;94748.44;5099199;27;20027;-73
2022/06/06 06:34:24;;;;;;;9.13;4.40;;;;;;;22.22;64.17;94752.28;5131212;27;20507;-72
2022/06/06 06:36:58;;;;;;;10.23;3.90;;;;;;;22.22;62.93;94747.00;5112537;28;20082;-71
2022/06/06 06:40:01;;;;;;;6.78;3.75;;;;;;;22.36;63.57;94739.91;5115712;27;20644;-72
2022/06/06 06:42:50;;;;;;;7.88;3.70;;;;;;;22.52;62.26;94746.66;5111780;27;20031;-71
2022/06/06 06:45:19;;;;;;;9.15;3.70;;;;;;;22.48;61.87;94726.88;5119227;27;20034;-75
2022/06/06 06:47:51;;;;;;;9.73;3.95;;;;;;;22.63;61.32;94727.50;5097448;27;20035;-71
2022/06/06 06:50:23;;;;;;;7.68;4.03;;;;;;;22.79;62.91;94723.66;5128884;27;20050;-72
2022/06/06 06:53:10;;;;;;;7.57;4.13;;;;;;;22.88;62.03;94718.97;5109336;27;20498;-71
2022/06/06 06:55:47;;;;;;;7.97;3.85;;;;;;;22.98;61.47;94708.78;5125699;27;20115;-72
2022/06/06 06:58:39;;;;;;;8.07;4.03;;;;;;;23.11;60.46;94706.09;5127700;27;20614;-68
2022/06/06 07:01:08;;;;;;;9.00;4.25;;;;;;;23.27;60.25;94701.41;5122036;27;20148;-70
2022/06/06 07:09:51;;;;;;;7.88;4.00;;;;;;;23.53;58.81;94687.22;5127229;27;20440;-68
2022/06/06 07:12:34;;;;;;;9.48;4.68;;;;;;;23.61;58.29;94692.31;5124791;27;20497;-68
2022/06/06 07:15:12;;;;;;;13.07;5.30;;;;;;;23.71;57.45;94684.75;5107670;28;20028;-68
2022/06/06 07:17:42;;;;;;;9.98;4.32;;;;;;;23.75;57.24;94685.94;5100481;27;20043;-69
2022/06/06 07:20:09;;;;;;;9.45;4.72;;;;;;;23.83;58.30;94691.00;5114513;27;20038;-68
2022/06/06 07:25:23;;;;;;;10.65;4.80;;;;;;;23.86;58.86;94677.31;5126223;27;20620;-68
2022/06/06 07:27:49;;;;;;;9.68;4.25;;;;;;;23.88;59.32;94673.66;5122039;27;20110;-68
2022/06/06 07:30:14;;;;;;;9.10;4.30;;;;;;;23.97;56.69;94678.47;5125873;27;20050;-69
2022/06/06 07:33:01;;;;;;;8.82;4.47;;;;;;;24.16;57.95;94686.53;5108915;28;20079;-68
2022/06/06 07:35:31;;;;;;;11.75;4.43;;;;;;;24.27;57.19;94691.16;5122078;27;20428;-68
2022/06/06 07:38:16;;;;;;;8.77;4.80;;;;;;;24.39;56.90;94688.63;5114890;27;20015;-68
2022/06/06 07:40:59;;;;;;;9.27;4.40;;;;;;;24.49;56.67;94687.16;5130470;27;20027;-68
2022/06/06 07:43:49;;;;;;;10.00;4.50;;;;;;;24.61;55.34;94691.75;5122745;27;20031;-69
2022/06/06 07:46:33;;;;;;;8.13;4.25;;;;;;;24.75;54.89;94695.91;5129461;27;20080;-69
2022/06/06 07:49:08;;;;;;;11.88;6.40;;;;;;;24.82;54.62;94695.84;5124094;27;20031;-68
2022/06/06 07:51:48;;;;;;;8.68;4.80;;;;;;;25.04;55.30;94688.28;5099184;28;20501;-69
2022/06/06 07:54:33;;;;;;;6.63;4.32;;;;;;;25.22;55.19;94690.19;5093198;28;20038;-69
2022/06/06 07:57:44;;;;;;;10.50;5.63;;;;;;;25.08;53.97;94686.84;5111243;28;20118;-69
2022/06/06 08:00:18;;;;;;;10.68;5.00;;;;;;;25.06;56.05;94689.69;5104084;28;20566;-69
2022/06/06 08:02:43;;;;;;;10.02;5.10;;;;;;;25.15;56.19;94700.88;5071925;28;20646;-69
2022/06/06 08:05:39;;;;;;;12.95;6.60;;;;;;;25.02;54.96;94693.84;5102094;28;20118;-69
2022/06/06 08:08:09;;;;;;;10.25;5.20;;;;;;;25.00;57.00;94697.75;5112094;27;20122;-69
2022/06/06 08:10:40;;;;;;;13.68;5.40;;;;;;;24.99;56.48;94699.59;5127313;28;20069;-69
2022/06/06 08:13:30;;;;;;;12.65;6.05;;;;;;;24.67;56.48;94701.50;5104601;27;20034;-69
2022/06/06 08:16:14;;;;;;;11.18;6.10;;;;;;;24.44;58.33;94713.53;5108024;27;20027;-69
2022/06/06 08:18:51;;;;;;;11.40;6.60;;;;;;;24.25;58.29;94706.47;5141275;27;20066;-69
2022/06/06 08:21:29;;;;;;;10.35;6.20;;;;;;;24.20;58.72;94708.94;5145512;27;20027;-69
2022/06/06 08:23:55;;;;;;;8.85;6.03;;;;;;;24.16;59.78;94724.50;5126520;27;20043;-69
2022/06/06 08:26:23;;;;;;;11.02;6.88;;;;;;;23.99;60.09;94721.53;5105512;28;20027;-68
2022/06/06 08:28:48;;;;;;;8.88;6.50;;;;;;;23.97;60.60;94733.38;5110305;27;20084;-69
2022/06/06 08:31:14;;;;;;;11.65;6.60;;;;;;;23.92;61.89;94734.00;5116493;27;20076;-69
2022/06/06 08:33:39;;;;;;;12.38;6.85;;;;;;;23.92;60.81;94741.97;5131932;27;20027;-69
2022/06/06 08:36:23;;;;;;;12.40;7.28;;;;;;;23.82;60.64;94738.94;5133536;27;20027;-68
2022/06/06 08:39:01;;;;;;;12.07;6.72;;;;;;;23.68;62.27;94737.34;5135215;27;20424;-68
2022/06/06 08:41:54;;;;;;;10.27;6.07;;;;;;;23.56;62.22;94739.81;5129608;27;20452;-68
2022/06/06 08:44:27;;;;;;;9.75;6.07;;;;;;;23.59;62.65;94720.84;5126503;27;20031;-68
2022/06/06 08:47:07;;;;;;;9.75;6.07;;;;;;;23.69;61.97;94721.22;5111455;28;20027;-68
2022/06/06 08:52:48;;;;;;;10.52;6.20;;;;;;;23.79;61.31;94744.66;5130369;27;20058;-68
2022/06/06 08:55:39;;;;;;;11.20;6.00;;;;;;;23.60;59.78;94752.47;5135199;27;20030;-69
2022/06/06 08:58:23;;;;;;;9.18;5.88;;;;;;;23.41;61.31;94772.69;5117474;27;20518;-68
2022/06/06 09:00:55;;;;;;;11.07;5.10;;;;;;;23.14;62.08;94785.16;5144068;27;20062;-68
2022/06/06 09:03:38;;;;;;;9.27;3.28;;;;;;;22.51;56.18;94800.59;5132544;27;20035;-69
2022/06/06 09:06:24;;;;;;;4.78;2.25;;;;;;;21.78;55.73;94782.63;5139890;27;20031;-69
2022/06/06 09:09:14;;;;;;;6.72;2.22;;;;;;;21.24;56.25;94788.63;5109225;27;20032;-70
2022/06/06 09:12:17;;;;;;;11.60;2.30;;;;;;;20.57;55.04;94773.28;5118346;27;20135;-69
2022/06/06 09:15:23;;;;;;;6.63;2.25;;;;;;;19.89;57.55;94755.09;5129601;27;20064;-69
2022/06/06 09:17:54;;;;;;;4.13;2.03;;;;;;;19.44;59.33;94743.78;5112071;27;20051;-69
2022/06/06 09:20:37;;;;;;;4.75;2.05;;;;;;;19.24;59.88;94769.88;5123846;27;20032;-69
2022/06/06 09:23:11;;;;;;;6.97;2.47;;;;;;;19.17;61.90;94801.38;5123887;27;20405;-69
2022/06/06 09:25:58;;;;;;;5.45;2.50;;;;;;;19.00;62.52;94822.75;5131622;27;20050;-69
2022/06/06 09:28:53;;;;;;;6.07;2.22;;;;;;;18.69;63.92;94831.53;5120944;27;20028;-69
2022/06/06 09:31:35;;;;;;;5.15;2.58;;;;;;;18.67;65.04;94826.47;5112936;27;20185;-68
2022/06/06 09:34:24;;;;;;;7.03;3.47;;;;;;;18.72;68.89;94818.88;5132573;27;20161;-68
2022/06/06 09:37:08;;;;;;;6.40;3.35;;;;;;;18.79;69.46;94820.81;5122906;27;20046;-68
2022/06/06 09:39:49;;;;;;;7.30;3.80;;;;;;;18.90;70.86;94801.97;5113632;27;20028;-69
2022/06/06 09:42:19;;;;;;;6.72;3.45;;;;;;;18.98;73.35;94807.16;5118076;27;20031;-69
2022/06/06 09:44:57;;;;;;;6.63;3.78;;;;;;;19.04;74.42;94803.00;5133018;27;20027;-69
2022/06/06 09:47:37;;;;;;;7.18;3.50;;;;;;;19.01;71.06;94809.44;5118395;27;20485;-68
2022/06/06 09:50:40;;;;;;;7.32;3.05;;;;;;;19.09;69.40;94795.38;5122160;27;20065;-68
2022/06/06 09:53:26;;;;;;;6.82;3.30;;;;;;;19.14;69.70;94809.66;5133141;27;20142;-68
2022/06/06 09:59:44;;;;;;;5.97;3.10;;;;;;;19.26;70.67;94786.31;5134492;27;20400;-68
2022/06/06 10:02:16;;;;;;;5.68;3.38;;;;;;;19.30;70.61;94784.13;5116659;27;20039;-69
2022/06/06 10:04:59;;;;;;;5.95;3.38;;;;;;;19.40;71.65;94782.06;5131902;27;20019;-69
2022/06/06 10:07:58;;;;;;;9.18;3.47;;;;;;;19.59;70.98;94784.13;5114375;27;20428;-69
2022/06/06 10:10:45;;;;;;;6.93;3.22;;;;;;;19.81;70.38;94792.97;5131297;27;20039;-69
2022/06/06 10:13:51;;;;;;;5.82;3.33;;;;;;;20.05;69.06;94820.78;5131481;27;20069;-70
2022/06/06 10:16:54;;;;;;;10.85;3.95;;;;;;;20.22;68.51;94820.56;5110342;27;20123;-69
2022/06/06 10:19:51;;;;;;;4.32;2.75;;;;;;;20.34;68.93;94813.84;5132199;27;20108;-69
2022/06/06 10:22:25;;;;;;;8.90;3.22;;;;;;;20.46;66.80;94807.03;5132305;27;20509;-69
2022/06/06 10:25:29;;;;;;;4.00;2.38;;;;;;;20.66;61.05;94803.81;5133265;27;20027;-69
2022/06/06 10:28:06;;;;;;;3.63;2.55;;;;;;;20.81;60.96;94799.28;5089970;28;20032;-69
2022/06/06 10:30:58;;;;;;;3.83;2.67;;;;;;;20.95;63.11;94797.56;5128742;27;20047;-69
2022/06/06 10:33:27;;;;;;;3.15;2.10;;;;;;;21.07;57.93;94813.69;5133257;27;20076;-69
2022/06/06 10:35:59;;;;;;;3.83;2.13;;;;;;;21.21;58.02;94815.44;5131861;27;20038;-70
2022/06/06 10:38:39;;;;;;;4.85;2.53;;;;;;;21.36;65.29;94810.84;5133038;27;20031;-69
2022/06/06 10:41:27;;;;;;;4.35;2.42;;;;;;;21.42;66.49;94802.19;5133187;27;20493;-69
2022/06/06 10:44:08;;;;;;;4.55;2.63;;;;;;;21.38;66.19;94785.09;5131772;27;20019;-70
2022/06/06 10:46:45;;;;;;;5.00;2.67;;;;;;;21.30;69.40;94777.28;5115276;27;20500;-69
2022/06/06 10:49:21;;;;;;;3.20;2.22;;;;;;;21.15;64.74;94784.50;5133202;27;20065;-70
2022/06/06 10:52:29;;;;;;;5.68;2.88;;;;;;;21.17;71.44;94780.66;5131470;27;20043;-69
2022/06/06 10:55:32;;;;;;;3.50;2.58;;;;;;;21.16;69.94;94791.41;5098181;27;20043;-69
2022/06/06 10:58:18;;;;;;;3.38;2.50;;;;;;;21.05;69.28;94795.38;5132656;27;20160;-69
2022/06/06 11:00:59;;;;;;;6.22;2.53;;;;;;;20.99;70.10;94798.81;5131503;27;20027;-69
2022/06/06 11:03:49;;;;;;;3.47;2.22;;;;;;;20.91;71.14;94796.31;5131258;27;20114;-69
2022/06/06 11:06:34;;;;;;;7.40;2.33;;;;;;;20.83;71.52;94817.56;5132911;27;20034;-69
2022/06/06 11:09:27;;;;;;;6.20;2.67;;;;;;;20.81;72.37;94803.72;5131423;27;20031;-69
2022/06/06 11:11:55;;;;;;;5.38;2.63;;;;;;;20.74;72.74;94799.22;5131246;27;20105;-69
2022/06/06 11:14:32;;;;;;;5.03;2.80;;;;;;;20.66;70.91;94791.41;5131253;27;20136;-69
2022/06/06 11:17:12;;;;;;;4.60;2.80;;;;;;;20.70;71.93;94797.16;5131157;27;20031;-69
2022/06/06 11:20:03;;;;;;;4.90;2.65;;;;;;;20.65;70.70;94799.53;5122259;27;20032;-69
2022/06/06 11:22:32;;;;;;;;;;;;;;;20.63;71.91;94794.44;5109826;28;20497;-69
2022/06/06 11:25:08;;;;;;;4.55;2.33;;;;;;;20.70;72.13;94805.88;5110648;28;20369;-69
2022/06/06 11:28:07;;;;;;;3.50;2.85;;;;;;;20.79;72.25;94805.75;5111646;28;20558;-69
2022/06/06 11:30:55;;;;;;;3.08;2.30;;;;;;;20.77;69.67;94794.56;5111730;28;20114;-69
2022/06/06 11:33:45;;;;;;;3.63;2.65;;;;;;;20.75;63.33;94789.47;5110335;28;20515;-69
2022/06/06 11:36:52;;;;;;;7.88;2.67;;;;;;;20.83;65.72;94783.25;5112647;27;20524;-69
2022/06/06 11:39:27;;;;;;;3.33;2.40;;;;;;;20.90;63.17;94782.28;5110841;28;20058;-69
2022/06/06 11:42:04;;;;;;;4.70;2.60;;;;;;;20.98;65.03;94770.78;5121256;27;20035;-68
2022/06/06 11:44:48;;;;;;;4.55;3.30;;;;;;;21.01;63.68;94761.66;5121708;27;20031;-71
2022/06/06 11:47:19;;;;;;;4.38;3.30;;;;;;;21.00;61.98;94776.66;5113805;27;20101;-72
2022/06/06 11:49:55;;;;;;;5.78;3.40;;;;;;;21.11;63.93;94778.78;5119785;27;20035;-72
2022/06/06 11:52:42;;;;;;;4.35;3.30;;;;;;;21.20;69.32;94784.72;5100829;27;20059;-69
2022/06/06 11:55:34;;;;;;;5.43;2.78;;;;;;;21.26;68.29;94786.63;5111446;28;20028;-71
2022/06/06 11:58:18;;;;;;;4.82;3.08;;;;;;;21.31;68.38;94789.50;5127841;28;20042;-72
2022/06/06 12:01:01;;;;;;;3.35;2.90;;;;;;;21.34;69.03;94782.97;5131721;27;20031;-72
2022/06/06 12:04:01;;;;;;;4.50;2.92;;;;;;;21.37;70.02;94793.22;5129773;27;20404;-71
2022/06/06 12:06:38;;;;;;;4.00;3.00;;;;;;;21.37;68.96;94780.81;5126382;28;20034;-72
2022/06/06 12:09:27;;;;;;;4.32;3.15;;;;;;;21.33;67.96;94776.88;5120006;28;20140;-69
2022/06/06 12:12:17;;;;;;;5.60;3.30;;;;;;;21.34;64.70;94765.31;5121396;28;20130;-70
2022/06/06 12:14:46;;;;;;;3.60;2.90;;;;;;;21.37;64.39;94757.03;5111562;28;20477;-70
2022/06/06 12:17:27;;;;;;;3.58;3.08;;;;;;;21.41;63.07;94768.03;5125545;27;20058;-70
2022/06/06 12:20:15;;;;;;;3.65;3.03;;;;;;;21.52;63.93;94769.31;5121817;28;20495;-70
2022/06/06 12:23:16;;;;;;;5.28;3.40;;;;;;;21.60;68.33;94775.25;5116878;28;20028;-70
2022/06/06 12:26:00;;;;;;;;;;;;;;;21.58;66.60;94776.44;5114599;28;20039;-70
2022/06/06 12:28:59;;;;;;;4.28;3.70;;;;;;;21.60;69.32;94769.16;5135577;27;19915;-70
2022/06/06 12:31:58;;;;;;;4.20;3.28;;;;;;;21.56;66.18;94765.25;5130765;27;20104;-70
2022/06/06 12:34:49;;;;;;;4.38;3.38;;;;;;;21.36;66.42;94746.63;5143516;27;20031;-70
2022/06/06 12:37:25;;;;;;;3.65;3.25;;;;;;;21.48;65.58;94749.56;5124982;28;20035;-69
2022/06/06 12:40:01;;;;;;;4.38;2.83;;;;;;;21.53;63.95;94755.88;5115574;28;20031;-71
2022/06/06 12:42:43;;;;;;;3.30;2.78;;;;;;;21.55;63.31;94761.78;5130158;28;20031;-70
2022/06/06 12:45:36;;;;;;;4.78;2.90;;;;;;;21.57;64.64;94767.72;5129802;28;20038;-70